CheckWX is a tool to help pilots better visualize weather data.  It is not intended as a substitute for an official pre-flight weather briefing.

13:42:51 UTC

KMIV TAF
Millville Municipal Airport
Millville, New Jersey, USA
KMIV 061720Z 0618/0718 20009KT P6SM SCT040 BKN120 FM062000 19007KT P6SM VCTS SCT040CB FM070400 VRB02KT P6SM BKN100 FM070900 VRB02KT P6SM OVC020

Jul-6@
18:00 UTC

Jul-6 @ 18:00 UTC

Jul-6@
20:00 UTC

Jul-6 @ 20:00 UTC

TAF KMIV 061720Z 0618/0718 20009KT P6SM SCT040 BKN120

Expired

Wind
  • 200° at 9 KTS
Cloud Levels
  • Scattered at 4,000' AGL
  • Broken at 12,000' AGL

Jul-6@
20:00 UTC

Jul-6 @ 20:00 UTC

Jul-7@
04:00 UTC

Jul-7 @ 04:00 UTC

FM062000 19007KT P6SM VCTS SCT040CB

Expired

Wind
  • 190° at 7 KTS
Conditions
Area Thunderstorm
Cloud Levels
  • Scattered at 4,000' AGL

Jul-7@
04:00 UTC

Jul-7 @ 04:00 UTC

Jul-7@
09:00 UTC

Jul-7 @ 09:00 UTC

FM070400 VRB02KT P6SM BKN100

Expired

Wind
  • Variable at 2 KTS
Cloud Levels
  • Broken at 10,000' AGL

Jul-7@
09:00 UTC

Jul-7 @ 09:00 UTC

Jul-7@
18:00 UTC

Jul-7 @ 18:00 UTC

FM070900 VRB02KT P6SM OVC020

From

From Standard forecast or significant change

Wind
  • Variable at 2 KTS
Cloud Levels
  • Overcast at 2,000' AGL